sensor_id;sensor_type;location;lat;lon;timestamp;P1;durP1;ratioP1;P2;durP2;ratioP2
14592;SDS011;7383;52.354;9.756;2023-02-24T00:00:13;6.00;;;2.75;;
14592;SDS011;7383;52.354;9.756;2023-02-24T00:02:59;8.48;;;3.28;;
14592;SDS011;7383;52.354;9.756;2023-02-24T00:05:31;4.32;;;2.25;;
14592;SDS011;7383;52.354;9.756;2023-02-24T00:07:59;7.35;;;2.83;;
14592;SDS011;7383;52.354;9.756;2023-02-24T00:10:26;7.80;;;3.00;;
14592;SDS011;7383;52.354;9.756;2023-02-24T00:12:53;7.07;;;2.90;;
14592;SDS011;7383;52.354;9.756;2023-02-24T00:15:19;6.63;;;2.42;;
14592;SDS011;7383;52.354;9.756;2023-02-24T00:17:46;7.68;;;3.05;;
14592;SDS011;7383;52.354;9.756;2023-02-24T00:20:12;7.10;;;2.83;;
14592;SDS011;7383;52.354;9.756;2023-02-24T00:22:42;9.07;;;2.47;;
14592;SDS011;7383;52.354;9.756;2023-02-24T00:25:09;6.60;;;3.53;;
14592;SDS011;7383;52.354;9.756;2023-02-24T00:27:37;5.20;;;2.33;;
14592;SDS011;7383;52.354;9.756;2023-02-24T00:30:05;3.97;;;2.53;;
14592;SDS011;7383;52.354;9.756;2023-02-24T00:32:32;5.55;;;2.85;;
14592;SDS011;7383;52.354;9.756;2023-02-24T00:35:00;7.75;;;2.65;;
14592;SDS011;7383;52.354;9.756;2023-02-24T00:37:26;5.88;;;2.25;;
14592;SDS011;7383;52.354;9.756;2023-02-24T00:39:53;7.18;;;2.58;;
14592;SDS011;7383;52.354;9.756;2023-02-24T00:42:22;7.72;;;2.45;;
14592;SDS011;7383;52.354;9.756;2023-02-24T00:44:51;7.55;;;2.38;;
14592;SDS011;7383;52.354;9.756;2023-02-24T00:47:19;6.53;;;2.42;;
14592;SDS011;7383;52.354;9.756;2023-02-24T00:49:46;5.90;;;2.58;;
14592;SDS011;7383;52.354;9.756;2023-02-24T00:52:14;6.15;;;2.53;;
14592;SDS011;7383;52.354;9.756;2023-02-24T00:54:42;6.72;;;2.85;;
14592;SDS011;7383;52.354;9.756;2023-02-24T00:57:10;5.63;;;2.55;;
14592;SDS011;7383;52.354;9.756;2023-02-24T00:59:38;5.63;;;2.40;;
14592;SDS011;7383;52.354;9.756;2023-02-24T01:02:06;5.32;;;2.60;;
14592;SDS011;7383;52.354;9.756;2023-02-24T01:04:35;4.95;;;2.30;;
14592;SDS011;7383;52.354;9.756;2023-02-24T01:07:02;5.10;;;2.20;;
14592;SDS011;7383;52.354;9.756;2023-02-24T01:09:34;5.18;;;2.10;;
14592;SDS011;7383;52.354;9.756;2023-02-24T01:12:02;4.85;;;2.20;;
14592;SDS011;7383;52.354;9.756;2023-02-24T01:14:47;7.78;;;2.47;;
14592;SDS011;7383;52.354;9.756;2023-02-24T01:17:17;5.30;;;2.70;;
14592;SDS011;7383;52.354;9.756;2023-02-24T01:19:45;5.22;;;2.40;;
14592;SDS011;7383;52.354;9.756;2023-02-24T01:22:13;7.45;;;2.60;;
14592;SDS011;7383;52.354;9.756;2023-02-24T01:24:41;7.13;;;2.22;;
14592;SDS011;7383;52.354;9.756;2023-02-24T01:27:09;4.75;;;2.20;;
14592;SDS011;7383;52.354;9.756;2023-02-24T01:29:37;6.13;;;2.38;;
14592;SDS011;7383;52.354;9.756;2023-02-24T01:32:03;7.15;;;2.53;;
14592;SDS011;7383;52.354;9.756;2023-02-24T01:34:31;6.13;;;2.65;;
14592;SDS011;7383;52.354;9.756;2023-02-24T01:36:59;6.75;;;2.30;;
14592;SDS011;7383;52.354;9.756;2023-02-24T01:39:25;6.55;;;2.30;;
14592;SDS011;7383;52.354;9.756;2023-02-24T01:41:52;5.28;;;1.95;;
14592;SDS011;7383;52.354;9.756;2023-02-24T01:47:23;9.10;;;2.67;;
14592;SDS011;7383;52.354;9.756;2023-02-24T01:49:54;10.88;;;3.10;;
14592;SDS011;7383;52.354;9.756;2023-02-24T01:52:21;4.30;;;2.20;;
14592;SDS011;7383;52.354;9.756;2023-02-24T01:54:51;7.70;;;2.95;;
14592;SDS011;7383;52.354;9.756;2023-02-24T01:57:20;6.53;;;2.47;;
14592;SDS011;7383;52.354;9.756;2023-02-24T01:59:49;6.10;;;2.17;;
14592;SDS011;7383;52.354;9.756;2023-02-24T02:02:18;5.43;;;2.55;;
14592;SDS011;7383;52.354;9.756;2023-02-24T02:04:48;4.38;;;2.30;;
14592;SDS011;7383;52.354;9.756;2023-02-24T02:07:20;5.00;;;2.28;;
14592;SDS011;7383;52.354;9.756;2023-02-24T02:09:48;6.47;;;2.58;;
14592;SDS011;7383;52.354;9.756;2023-02-24T02:12:18;6.28;;;3.08;;
14592;SDS011;7383;52.354;9.756;2023-02-24T02:14:45;4.65;;;2.28;;
14592;SDS011;7383;52.354;9.756;2023-02-24T02:17:16;5.15;;;1.90;;
14592;SDS011;7383;52.354;9.756;2023-02-24T02:19:57;6.20;;;2.35;;
14592;SDS011;7383;52.354;9.756;2023-02-24T02:22:48;7.45;;;2.55;;
14592;SDS011;7383;52.354;9.756;2023-02-24T02:25:28;8.90;;;2.78;;
14592;SDS011;7383;52.354;9.756;2023-02-24T02:28:27;5.28;;;2.00;;
14592;SDS011;7383;52.354;9.756;2023-02-24T02:34:16;7.00;;;2.40;;
14592;SDS011;7383;52.354;9.756;2023-02-24T02:36:54;6.03;;;2.40;;
14592;SDS011;7383;52.354;9.756;2023-02-24T02:39:34;7.47;;;2.35;;
14592;SDS011;7383;52.354;9.756;2023-02-24T02:42:14;4.97;;;2.30;;
14592;SDS011;7383;52.354;9.756;2023-02-24T02:44:52;4.40;;;1.80;;
14592;SDS011;7383;52.354;9.756;2023-02-24T02:47:29;6.93;;;2.45;;
14592;SDS011;7383;52.354;9.756;2023-02-24T02:50:06;5.05;;;2.10;;
14592;SDS011;7383;52.354;9.756;2023-02-24T02:52:38;5.78;;;2.25;;
14592;SDS011;7383;52.354;9.756;2023-02-24T02:55:08;4.28;;;2.15;;
14592;SDS011;7383;52.354;9.756;2023-02-24T02:57:42;7.13;;;2.30;;
14592;SDS011;7383;52.354;9.756;2023-02-24T03:00:16;6.03;;;1.90;;
14592;SDS011;7383;52.354;9.756;2023-02-24T03:02:47;2.45;;;1.90;;
14592;SDS011;7383;52.354;9.756;2023-02-24T03:05:18;3.78;;;2.00;;
14592;SDS011;7383;52.354;9.756;2023-02-24T03:07:53;4.47;;;2.20;;
14592;SDS011;7383;52.354;9.756;2023-02-24T03:10:24;8.38;;;2.17;;
14592;SDS011;7383;52.354;9.756;2023-02-24T03:12:54;6.28;;;2.50;;
14592;SDS011;7383;52.354;9.756;2023-02-24T03:15:24;4.68;;;1.80;;
14592;SDS011;7383;52.354;9.756;2023-02-24T03:17:59;4.05;;;1.83;;
14592;SDS011;7383;52.354;9.756;2023-02-24T03:20:35;5.38;;;2.00;;
14592;SDS011;7383;52.354;9.756;2023-02-24T03:23:08;5.85;;;2.42;;
14592;SDS011;7383;52.354;9.756;2023-02-24T03:25:41;5.70;;;2.05;;
14592;SDS011;7383;52.354;9.756;2023-02-24T03:28:12;4.68;;;2.00;;
14592;SDS011;7383;52.354;9.756;2023-02-24T03:30:43;3.67;;;1.88;;
14592;SDS011;7383;52.354;9.756;2023-02-24T03:33:16;4.95;;;1.75;;
14592;SDS011;7383;52.354;9.756;2023-02-24T03:35:49;3.13;;;1.70;;
14592;SDS011;7383;52.354;9.756;2023-02-24T03:38:16;3.72;;;1.67;;
14592;SDS011;7383;52.354;9.756;2023-02-24T03:40:47;5.50;;;2.13;;
14592;SDS011;7383;52.354;9.756;2023-02-24T03:43:15;4.43;;;2.17;;
14592;SDS011;7383;52.354;9.756;2023-02-24T03:45:44;2.90;;;1.83;;
14592;SDS011;7383;52.354;9.756;2023-02-24T03:48:11;4.63;;;1.80;;
14592;SDS011;7383;52.354;9.756;2023-02-24T03:50:38;4.65;;;1.73;;
14592;SDS011;7383;52.354;9.756;2023-02-24T03:53:11;4.43;;;2.10;;
14592;SDS011;7383;52.354;9.756;2023-02-24T03:55:55;2.45;;;1.20;;
14592;SDS011;7383;52.354;9.756;2023-02-24T03:58:31;3.47;;;1.50;;
14592;SDS011;7383;52.354;9.756;2023-02-24T04:01:09;3.30;;;1.90;;
14592;SDS011;7383;52.354;9.756;2023-02-24T04:03:43;2.70;;;1.48;;
14592;SDS011;7383;52.354;9.756;2023-02-24T04:06:17;2.20;;;1.40;;
14592;SDS011;7383;52.354;9.756;2023-02-24T04:08:51;4.25;;;1.75;;
14592;SDS011;7383;52.354;9.756;2023-02-24T04:11:26;4.50;;;1.75;;
14592;SDS011;7383;52.354;9.756;2023-02-24T04:13:59;3.75;;;1.80;;
14592;SDS011;7383;52.354;9.756;2023-02-24T04:16:33;2.83;;;1.60;;
14592;SDS011;7383;52.354;9.756;2023-02-24T04:19:05;2.92;;;1.33;;
14592;SDS011;7383;52.354;9.756;2023-02-24T04:21:35;2.70;;;1.73;;
14592;SDS011;7383;52.354;9.756;2023-02-24T04:24:05;2.55;;;1.52;;
14592;SDS011;7383;52.354;9.756;2023-02-24T04:26:41;3.72;;;1.65;;
14592;SDS011;7383;52.354;9.756;2023-02-24T04:29:10;4.47;;;2.40;;
14592;SDS011;7383;52.354;9.756;2023-02-24T04:31:43;3.22;;;1.52;;
14592;SDS011;7383;52.354;9.756;2023-02-24T04:34:12;4.00;;;1.60;;
14592;SDS011;7383;52.354;9.756;2023-02-24T04:36:43;4.57;;;1.75;;
14592;SDS011;7383;52.354;9.756;2023-02-24T04:39:14;3.30;;;1.63;;
14592;SDS011;7383;52.354;9.756;2023-02-24T04:41:42;2.92;;;1.15;;
14592;SDS011;7383;52.354;9.756;2023-02-24T04:44:09;4.72;;;1.90;;
14592;SDS011;7383;52.354;9.756;2023-02-24T04:46:36;3.60;;;1.92;;
14592;SDS011;7383;52.354;9.756;2023-02-24T04:49:02;4.07;;;1.73;;
14592;SDS011;7383;52.354;9.756;2023-02-24T04:51:29;3.70;;;1.48;;
14592;SDS011;7383;52.354;9.756;2023-02-24T04:53:57;4.93;;;1.83;;
14592;SDS011;7383;52.354;9.756;2023-02-24T04:56:25;5.47;;;2.10;;
14592;SDS011;7383;52.354;9.756;2023-02-24T04:58:53;2.67;;;2.05;;
14592;SDS011;7383;52.354;9.756;2023-02-24T05:01:19;3.45;;;1.67;;
14592;SDS011;7383;52.354;9.756;2023-02-24T05:03:45;3.03;;;1.70;;
14592;SDS011;7383;52.354;9.756;2023-02-24T05:06:13;3.63;;;1.70;;
14592;SDS011;7383;52.354;9.756;2023-02-24T05:08:41;5.30;;;1.92;;
14592;SDS011;7383;52.354;9.756;2023-02-24T05:11:11;4.25;;;1.80;;
14592;SDS011;7383;52.354;9.756;2023-02-24T05:13:41;4.40;;;1.73;;
14592;SDS011;7383;52.354;9.756;2023-02-24T05:16:09;3.70;;;1.80;;
14592;SDS011;7383;52.354;9.756;2023-02-24T05:18:37;4.55;;;1.90;;
14592;SDS011;7383;52.354;9.756;2023-02-24T05:21:07;2.80;;;1.70;;
14592;SDS011;7383;52.354;9.756;2023-02-24T05:23:55;3.63;;;1.70;;
14592;SDS011;7383;52.354;9.756;2023-02-24T05:26:23;5.97;;;1.95;;
14592;SDS011;7383;52.354;9.756;2023-02-24T05:28:53;2.55;;;1.17;;
14592;SDS011;7383;52.354;9.756;2023-02-24T05:31:20;4.80;;;1.88;;
14592;SDS011;7383;52.354;9.756;2023-02-24T05:33:51;4.90;;;1.60;;
14592;SDS011;7383;52.354;9.756;2023-02-24T05:36:19;2.22;;;1.50;;
14592;SDS011;7383;52.354;9.756;2023-02-24T05:38:47;2.85;;;1.60;;
14592;SDS011;7383;52.354;9.756;2023-02-24T05:41:20;2.35;;;1.60;;
14592;SDS011;7383;52.354;9.756;2023-02-24T05:43:49;4.38;;;1.45;;
14592;SDS011;7383;52.354;9.756;2023-02-24T05:46:20;2.42;;;1.42;;
14592;SDS011;7383;52.354;9.756;2023-02-24T05:48:52;4.10;;;1.60;;
14592;SDS011;7383;52.354;9.756;2023-02-24T05:51:20;3.20;;;1.10;;
14592;SDS011;7383;52.354;9.756;2023-02-24T05:53:48;3.10;;;1.30;;
14592;SDS011;7383;52.354;9.756;2023-02-24T05:56:19;3.70;;;1.40;;
14592;SDS011;7383;52.354;9.756;2023-02-24T05:58:46;1.95;;;1.20;;
14592;SDS011;7383;52.354;9.756;2023-02-24T06:01:14;2.40;;;1.10;;
14592;SDS011;7383;52.354;9.756;2023-02-24T06:03:44;2.08;;;1.40;;
14592;SDS011;7383;52.354;9.756;2023-02-24T06:06:12;3.05;;;1.20;;
14592;SDS011;7383;52.354;9.756;2023-02-24T06:08:39;2.22;;;1.10;;
14592;SDS011;7383;52.354;9.756;2023-02-24T06:11:07;1.75;;;1.17;;
14592;SDS011;7383;52.354;9.756;2023-02-24T06:13:35;2.28;;;1.10;;
14592;SDS011;7383;52.354;9.756;2023-02-24T06:16:02;2.30;;;1.05;;
14592;SDS011;7383;52.354;9.756;2023-02-24T06:18:29;1.73;;;0.80;;
14592;SDS011;7383;52.354;9.756;2023-02-24T06:20:59;1.23;;;0.90;;
14592;SDS011;7383;52.354;9.756;2023-02-24T06:23:26;1.52;;;0.80;;
14592;SDS011;7383;52.354;9.756;2023-02-24T06:25:52;1.27;;;0.95;;
14592;SDS011;7383;52.354;9.756;2023-02-24T06:28:21;2.30;;;1.25;;
14592;SDS011;7383;52.354;9.756;2023-02-24T06:30:48;1.73;;;1.00;;
14592;SDS011;7383;52.354;9.756;2023-02-24T06:33:15;4.00;;;1.33;;
14592;SDS011;7383;52.354;9.756;2023-02-24T06:35:41;1.98;;;1.45;;
14592;SDS011;7383;52.354;9.756;2023-02-24T06:38:09;1.63;;;1.15;;
14592;SDS011;7383;52.354;9.756;2023-02-24T06:40:35;3.63;;;1.25;;
14592;SDS011;7383;52.354;9.756;2023-02-24T06:43:02;2.03;;;1.20;;
14592;SDS011;7383;52.354;9.756;2023-02-24T06:45:29;1.85;;;1.15;;
14592;SDS011;7383;52.354;9.756;2023-02-24T06:47:56;2.10;;;0.95;;
14592;SDS011;7383;52.354;9.756;2023-02-24T06:50:22;4.03;;;1.50;;
14592;SDS011;7383;52.354;9.756;2023-02-24T06:52:49;2.15;;;0.90;;
14592;SDS011;7383;52.354;9.756;2023-02-24T06:55:21;2.45;;;1.35;;
14592;SDS011;7383;52.354;9.756;2023-02-24T06:57:51;1.65;;;1.40;;
14592;SDS011;7383;52.354;9.756;2023-02-24T07:00:21;3.40;;;1.33;;
14592;SDS011;7383;52.354;9.756;2023-02-24T07:02:52;3.83;;;1.38;;
14592;SDS011;7383;52.354;9.756;2023-02-24T07:05:18;2.75;;;1.40;;
14592;SDS011;7383;52.354;9.756;2023-02-24T07:07:48;2.65;;;1.45;;
14592;SDS011;7383;52.354;9.756;2023-02-24T07:10:15;1.13;;;0.82;;
14592;SDS011;7383;52.354;9.756;2023-02-24T07:12:43;3.45;;;1.05;;
14592;SDS011;7383;52.354;9.756;2023-02-24T07:15:10;2.22;;;1.15;;
14592;SDS011;7383;52.354;9.756;2023-02-24T07:17:38;1.85;;;0.82;;
14592;SDS011;7383;52.354;9.756;2023-02-24T07:20:04;2.63;;;0.95;;
14592;SDS011;7383;52.354;9.756;2023-02-24T07:22:35;2.08;;;0.80;;
14592;SDS011;7383;52.354;9.756;2023-02-24T07:25:02;2.13;;;1.10;;
14592;SDS011;7383;52.354;9.756;2023-02-24T07:27:31;2.55;;;0.98;;
14592;SDS011;7383;52.354;9.756;2023-02-24T07:29:58;2.92;;;1.00;;
14592;SDS011;7383;52.354;9.756;2023-02-24T07:32:30;2.13;;;1.17;;
14592;SDS011;7383;52.354;9.756;2023-02-24T07:34:56;2.45;;;1.40;;
14592;SDS011;7383;52.354;9.756;2023-02-24T07:37:23;3.17;;;1.25;;
14592;SDS011;7383;52.354;9.756;2023-02-24T07:39:49;0.93;;;0.68;;
14592;SDS011;7383;52.354;9.756;2023-02-24T07:42:16;3.47;;;1.50;;
14592;SDS011;7383;52.354;9.756;2023-02-24T07:44:43;1.52;;;0.98;;
14592;SDS011;7383;52.354;9.756;2023-02-24T07:47:11;1.52;;;0.85;;
14592;SDS011;7383;52.354;9.756;2023-02-24T07:49:39;3.67;;;1.05;;
14592;SDS011;7383;52.354;9.756;2023-02-24T07:52:06;1.45;;;1.10;;
14592;SDS011;7383;52.354;9.756;2023-02-24T07:54:32;0.90;;;0.82;;
14592;SDS011;7383;52.354;9.756;2023-02-24T07:56:59;1.27;;;1.02;;
14592;SDS011;7383;52.354;9.756;2023-02-24T07:59:26;2.50;;;1.23;;
14592;SDS011;7383;52.354;9.756;2023-02-24T08:01:54;2.05;;;1.10;;
14592;SDS011;7383;52.354;9.756;2023-02-24T08:04:23;3.65;;;1.20;;
14592;SDS011;7383;52.354;9.756;2023-02-24T08:06:51;5.15;;;1.25;;
14592;SDS011;7383;52.354;9.756;2023-02-24T08:09:23;1.98;;;1.10;;
14592;SDS011;7383;52.354;9.756;2023-02-24T08:12:08;2.67;;;1.13;;
14592;SDS011;7383;52.354;9.756;2023-02-24T08:14:35;2.53;;;1.25;;
14592;SDS011;7383;52.354;9.756;2023-02-24T08:17:58;2.33;;;1.50;;
14592;SDS011;7383;52.354;9.756;2023-02-24T08:20:01;3.28;;;0.98;;
14592;SDS011;7383;52.354;9.756;2023-02-24T08:22:42;1.73;;;1.05;;
14592;SDS011;7383;52.354;9.756;2023-02-24T08:25:11;2.17;;;1.10;;
14592;SDS011;7383;52.354;9.756;2023-02-24T08:27:42;2.78;;;1.15;;
14592;SDS011;7383;52.354;9.756;2023-02-24T08:30:11;2.72;;;1.67;;
14592;SDS011;7383;52.354;9.756;2023-02-24T08:32:47;4.10;;;1.20;;
14592;SDS011;7383;52.354;9.756;2023-02-24T08:35:23;2.17;;;0.90;;
14592;SDS011;7383;52.354;9.756;2023-02-24T08:37:56;3.00;;;1.20;;
14592;SDS011;7383;52.354;9.756;2023-02-24T08:40:27;2.95;;;1.45;;
14592;SDS011;7383;52.354;9.756;2023-02-24T08:43:04;3.30;;;1.73;;
14592;SDS011;7383;52.354;9.756;2023-02-24T08:45:41;2.08;;;1.50;;
14592;SDS011;7383;52.354;9.756;2023-02-24T08:48:09;1.73;;;1.20;;
14592;SDS011;7383;52.354;9.756;2023-02-24T08:50:51;3.13;;;1.20;;
14592;SDS011;7383;52.354;9.756;2023-02-24T08:53:19;3.88;;;1.58;;
14592;SDS011;7383;52.354;9.756;2023-02-24T08:55:46;2.53;;;1.33;;
14592;SDS011;7383;52.354;9.756;2023-02-24T08:58:16;4.10;;;1.60;;
14592;SDS011;7383;52.354;9.756;2023-02-24T09:00:43;2.30;;;1.33;;
14592;SDS011;7383;52.354;9.756;2023-02-24T09:03:14;3.15;;;1.33;;
14592;SDS011;7383;52.354;9.756;2023-02-24T09:05:56;3.50;;;1.42;;
14592;SDS011;7383;52.354;9.756;2023-02-24T09:08:23;1.98;;;1.33;;
14592;SDS011;7383;52.354;9.756;2023-02-24T09:17:00;4.93;;;1.42;;
14592;SDS011;7383;52.354;9.756;2023-02-24T09:19:30;3.35;;;1.30;;
14592;SDS011;7383;52.354;9.756;2023-02-24T09:22:27;3.35;;;1.50;;
14592;SDS011;7383;52.354;9.756;2023-02-24T09:25:05;3.63;;;1.88;;
14592;SDS011;7383;52.354;9.756;2023-02-24T09:27:43;2.80;;;1.40;;
14592;SDS011;7383;52.354;9.756;2023-02-24T09:30:13;3.30;;;1.80;;
14592;SDS011;7383;52.354;9.756;2023-02-24T09:33:18;4.97;;;2.00;;
14592;SDS011;7383;52.354;9.756;2023-02-24T09:35:49;3.42;;;2.10;;
14592;SDS011;7383;52.354;9.756;2023-02-24T09:38:18;2.90;;;1.58;;
14592;SDS011;7383;52.354;9.756;2023-02-24T09:41:08;3.38;;;2.03;;
14592;SDS011;7383;52.354;9.756;2023-02-24T09:43:55;2.72;;;1.80;;
14592;SDS011;7383;52.354;9.756;2023-02-24T09:46:28;2.75;;;1.60;;
14592;SDS011;7383;52.354;9.756;2023-02-24T09:49:00;2.13;;;1.63;;
14592;SDS011;7383;52.354;9.756;2023-02-24T09:51:30;4.07;;;1.52;;
14592;SDS011;7383;52.354;9.756;2023-02-24T09:54:07;2.67;;;1.40;;
14592;SDS011;7383;52.354;9.756;2023-02-24T09:56:40;4.07;;;2.20;;
14592;SDS011;7383;52.354;9.756;2023-02-24T09:59:13;2.67;;;1.60;;
14592;SDS011;7383;52.354;9.756;2023-02-24T10:01:52;3.95;;;1.60;;
14592;SDS011;7383;52.354;9.756;2023-02-24T10:04:37;5.47;;;1.70;;
14592;SDS011;7383;52.354;9.756;2023-02-24T10:07:19;3.80;;;2.00;;
14592;SDS011;7383;52.354;9.756;2023-02-24T10:09:54;5.00;;;1.73;;
14592;SDS011;7383;52.354;9.756;2023-02-24T10:12:43;3.50;;;1.50;;
14592;SDS011;7383;52.354;9.756;2023-02-24T10:15:17;4.38;;;1.58;;
14592;SDS011;7383;52.354;9.756;2023-02-24T10:18:13;3.10;;;1.88;;
14592;SDS011;7383;52.354;9.756;2023-02-24T10:21:13;3.45;;;1.48;;
14592;SDS011;7383;52.354;9.756;2023-02-24T10:23:58;4.20;;;1.90;;
14592;SDS011;7383;52.354;9.756;2023-02-24T10:26:50;2.28;;;1.60;;
14592;SDS011;7383;52.354;9.756;2023-02-24T10:29:23;3.42;;;1.48;;
14592;SDS011;7383;52.354;9.756;2023-02-24T10:32:06;3.10;;;1.63;;
14592;SDS011;7383;52.354;9.756;2023-02-24T10:34:48;2.25;;;1.45;;
14592;SDS011;7383;52.354;9.756;2023-02-24T10:37:16;2.35;;;1.40;;
14592;SDS011;7383;52.354;9.756;2023-02-24T10:39:46;2.25;;;1.50;;
14592;SDS011;7383;52.354;9.756;2023-02-24T10:42:22;1.40;;;1.30;;
14592;SDS011;7383;52.354;9.756;2023-02-24T10:44:50;1.95;;;1.20;;
14592;SDS011;7383;52.354;9.756;2023-02-24T10:47:18;1.73;;;1.00;;
14592;SDS011;7383;52.354;9.756;2023-02-24T10:49:57;2.05;;;1.73;;
14592;SDS011;7383;52.354;9.756;2023-02-24T10:52:27;1.98;;;1.13;;
14592;SDS011;7383;52.354;9.756;2023-02-24T10:55:18;1.63;;;1.40;;
14592;SDS011;7383;52.354;9.756;2023-02-24T10:57:53;1.20;;;1.10;;
14592;SDS011;7383;52.354;9.756;2023-02-24T11:00:35;3.50;;;1.70;;
14592;SDS011;7383;52.354;9.756;2023-02-24T11:03:36;1.92;;;1.35;;
14592;SDS011;7383;52.354;9.756;2023-02-24T11:06:18;1.33;;;1.23;;
14592;SDS011;7383;52.354;9.756;2023-02-24T11:09:12;1.23;;;1.13;;
14592;SDS011;7383;52.354;9.756;2023-02-24T11:11:56;1.30;;;1.20;;
14592;SDS011;7383;52.354;9.756;2023-02-24T11:14:46;1.63;;;1.20;;
14592;SDS011;7383;52.354;9.756;2023-02-24T11:17:33;1.42;;;1.05;;
14592;SDS011;7383;52.354;9.756;2023-02-24T11:20:02;1.58;;;1.27;;
14592;SDS011;7383;52.354;9.756;2023-02-24T11:22:36;1.90;;;1.45;;
14592;SDS011;7383;52.354;9.756;2023-02-24T11:25:06;1.52;;;1.38;;
14592;SDS011;7383;52.354;9.756;2023-02-24T11:27:43;1.42;;;1.33;;
14592;SDS011;7383;52.354;9.756;2023-02-24T11:30:14;1.60;;;1.50;;
14592;SDS011;7383;52.354;9.756;2023-02-24T11:32:57;1.30;;;1.20;;
14592;SDS011;7383;52.354;9.756;2023-02-24T11:35:35;1.40;;;1.30;;
14592;SDS011;7383;52.354;9.756;2023-02-24T11:38:10;1.80;;;1.60;;
14592;SDS011;7383;52.354;9.756;2023-02-24T11:40:54;1.52;;;1.20;;
14592;SDS011;7383;52.354;9.756;2023-02-24T11:43:30;2.80;;;1.67;;
14592;SDS011;7383;52.354;9.756;2023-02-24T11:46:02;1.58;;;1.48;;
14592;SDS011;7383;52.354;9.756;2023-02-24T11:48:36;1.88;;;1.50;;
14592;SDS011;7383;52.354;9.756;2023-02-24T11:51:16;1.40;;;1.30;;
14592;SDS011;7383;52.354;9.756;2023-02-24T11:53:46;2.25;;;1.30;;
14592;SDS011;7383;52.354;9.756;2023-02-24T11:56:17;2.17;;;1.50;;
14592;SDS011;7383;52.354;9.756;2023-02-24T11:58:49;1.50;;;1.40;;
14592;SDS011;7383;52.354;9.756;2023-02-24T12:01:21;1.20;;;1.20;;
14592;SDS011;7383;52.354;9.756;2023-02-24T12:03:53;1.50;;;1.40;;
14592;SDS011;7383;52.354;9.756;2023-02-24T12:06:29;1.45;;;1.35;;
14592;SDS011;7383;52.354;9.756;2023-02-24T12:09:05;1.65;;;1.55;;
14592;SDS011;7383;52.354;9.756;2023-02-24T12:11:38;1.45;;;1.30;;
14592;SDS011;7383;52.354;9.756;2023-02-24T12:14:14;1.33;;;1.00;;
14592;SDS011;7383;52.354;9.756;2023-02-24T12:16:47;1.50;;;1.40;;
14592;SDS011;7383;52.354;9.756;2023-02-24T12:19:22;1.50;;;1.40;;
14592;SDS011;7383;52.354;9.756;2023-02-24T12:21:57;1.30;;;1.20;;
14592;SDS011;7383;52.354;9.756;2023-02-24T12:24:31;1.35;;;1.35;;
14592;SDS011;7383;52.354;9.756;2023-02-24T12:27:10;1.30;;;1.30;;
14592;SDS011;7383;52.354;9.756;2023-02-24T12:29:46;1.40;;;1.40;;
14592;SDS011;7383;52.354;9.756;2023-02-24T12:32:25;1.20;;;1.20;;
14592;SDS011;7383;52.354;9.756;2023-02-24T12:35:02;1.50;;;1.40;;
14592;SDS011;7383;52.354;9.756;2023-02-24T12:37:47;1.50;;;1.40;;
14592;SDS011;7383;52.354;9.756;2023-02-24T12:40:28;1.30;;;1.30;;
14592;SDS011;7383;52.354;9.756;2023-02-24T12:43:09;1.38;;;1.27;;
14592;SDS011;7383;52.354;9.756;2023-02-24T12:45:48;1.25;;;1.25;;
14592;SDS011;7383;52.354;9.756;2023-02-24T12:48:26;1.42;;;1.42;;
14592;SDS011;7383;52.354;9.756;2023-02-24T12:51:15;1.35;;;1.17;;
14592;SDS011;7383;52.354;9.756;2023-02-24T12:53:48;1.38;;;1.38;;
14592;SDS011;7383;52.354;9.756;2023-02-24T12:56:23;1.40;;;1.40;;
14592;SDS011;7383;52.354;9.756;2023-02-24T12:58:58;1.60;;;1.50;;
14592;SDS011;7383;52.354;9.756;2023-02-24T13:01:30;1.55;;;1.50;;
14592;SDS011;7383;52.354;9.756;2023-02-24T13:04:14;1.30;;;1.30;;
14592;SDS011;7383;52.354;9.756;2023-02-24T13:06:58;1.80;;;1.70;;
14592;SDS011;7383;52.354;9.756;2023-02-24T13:09:36;1.73;;;1.63;;
14592;SDS011;7383;52.354;9.756;2023-02-24T13:12:14;1.30;;;1.30;;
14592;SDS011;7383;52.354;9.756;2023-02-24T13:14:44;1.33;;;1.30;;
14592;SDS011;7383;52.354;9.756;2023-02-24T13:17:16;1.65;;;1.55;;
14592;SDS011;7383;52.354;9.756;2023-02-24T13:19:45;1.45;;;1.45;;
14592;SDS011;7383;52.354;9.756;2023-02-24T13:22:20;1.48;;;1.48;;
14592;SDS011;7383;52.354;9.756;2023-02-24T13:25:02;1.73;;;1.70;;
14592;SDS011;7383;52.354;9.756;2023-02-24T13:27:42;1.90;;;1.80;;
14592;SDS011;7383;52.354;9.756;2023-02-24T13:30:27;1.70;;;1.60;;
14592;SDS011;7383;52.354;9.756;2023-02-24T13:32:59;1.80;;;1.70;;
14592;SDS011;7383;52.354;9.756;2023-02-24T13:35:32;1.70;;;1.60;;
14592;SDS011;7383;52.354;9.756;2023-02-24T13:38:08;1.50;;;1.50;;
14592;SDS011;7383;52.354;9.756;2023-02-24T13:40:46;1.55;;;1.55;;
14592;SDS011;7383;52.354;9.756;2023-02-24T13:43:20;1.50;;;1.50;;
14592;SDS011;7383;52.354;9.756;2023-02-24T13:45:53;1.60;;;1.60;;
14592;SDS011;7383;52.354;9.756;2023-02-24T13:51:28;2.25;;;2.15;;
14592;SDS011;7383;52.354;9.756;2023-02-24T13:54:24;2.40;;;2.20;;
14592;SDS011;7383;52.354;9.756;2023-02-24T13:57:21;2.10;;;2.00;;
14592;SDS011;7383;52.354;9.756;2023-02-24T14:00:08;2.30;;;2.20;;
14592;SDS011;7383;52.354;9.756;2023-02-24T14:02:47;1.80;;;1.80;;
14592;SDS011;7383;52.354;9.756;2023-02-24T14:05:19;2.63;;;2.42;;
14592;SDS011;7383;52.354;9.756;2023-02-24T14:07:49;2.25;;;2.15;;
14592;SDS011;7383;52.354;9.756;2023-02-24T14:10:17;2.60;;;2.40;;
14592;SDS011;7383;52.354;9.756;2023-02-24T14:13:00;2.20;;;2.10;;
14592;SDS011;7383;52.354;9.756;2023-02-24T14:15:38;2.08;;;1.98;;
14592;SDS011;7383;52.354;9.756;2023-02-24T14:18:16;2.20;;;2.10;;
14592;SDS011;7383;52.354;9.756;2023-02-24T14:20:45;2.17;;;2.08;;
14592;SDS011;7383;52.354;9.756;2023-02-24T14:23:26;2.38;;;2.28;;
14592;SDS011;7383;52.354;9.756;2023-02-24T14:25:56;2.30;;;2.20;;
14592;SDS011;7383;52.354;9.756;2023-02-24T14:28:32;2.25;;;2.15;;
14592;SDS011;7383;52.354;9.756;2023-02-24T14:31:05;2.30;;;2.20;;
14592;SDS011;7383;52.354;9.756;2023-02-24T14:33:43;2.65;;;2.47;;
14592;SDS011;7383;52.354;9.756;2023-02-24T14:36:12;2.75;;;2.55;;
14592;SDS011;7383;52.354;9.756;2023-02-24T14:38:44;2.63;;;2.42;;
14592;SDS011;7383;52.354;9.756;2023-02-24T14:41:16;2.45;;;2.35;;
14592;SDS011;7383;52.354;9.756;2023-02-24T14:43:48;2.53;;;2.42;;
14592;SDS011;7383;52.354;9.756;2023-02-24T14:49:54;2.85;;;2.65;;
14592;SDS011;7383;52.354;9.756;2023-02-24T14:52:25;2.78;;;2.67;;
14592;SDS011;7383;52.354;9.756;2023-02-24T14:55:01;3.30;;;3.10;;
14592;SDS011;7383;52.354;9.756;2023-02-24T14:57:40;2.47;;;2.38;;
14592;SDS011;7383;52.354;9.756;2023-02-24T15:00:14;2.92;;;2.60;;
14592;SDS011;7383;52.354;9.756;2023-02-24T15:02:49;2.80;;;2.60;;
14592;SDS011;7383;52.354;9.756;2023-02-24T15:05:25;3.30;;;3.05;;
14592;SDS011;7383;52.354;9.756;2023-02-24T15:07:51;2.92;;;2.72;;
14592;SDS011;7383;52.354;9.756;2023-02-24T15:10:25;2.90;;;2.70;;
14592;SDS011;7383;52.354;9.756;2023-02-24T15:12:56;2.92;;;2.55;;
14592;SDS011;7383;52.354;9.756;2023-02-24T15:15:26;3.47;;;3.03;;
14592;SDS011;7383;52.354;9.756;2023-02-24T15:17:55;3.25;;;3.05;;
14592;SDS011;7383;52.354;9.756;2023-02-24T15:20:27;3.08;;;2.88;;
14592;SDS011;7383;52.354;9.756;2023-02-24T15:22:59;2.90;;;2.70;;
14592;SDS011;7383;52.354;9.756;2023-02-24T15:25:27;3.00;;;2.70;;
14592;SDS011;7383;52.354;9.756;2023-02-24T15:27:55;3.15;;;2.92;;
14592;SDS011;7383;52.354;9.756;2023-02-24T15:30:25;3.75;;;3.55;;
14592;SDS011;7383;52.354;9.756;2023-02-24T15:33:00;3.80;;;3.47;;
14592;SDS011;7383;52.354;9.756;2023-02-24T15:35:31;3.78;;;3.40;;
14592;SDS011;7383;52.354;9.756;2023-02-24T15:37:59;3.78;;;2.95;;
14592;SDS011;7383;52.354;9.756;2023-02-24T15:40:27;4.38;;;3.60;;
14592;SDS011;7383;52.354;9.756;2023-02-24T15:42:55;3.22;;;2.67;;
14592;SDS011;7383;52.354;9.756;2023-02-24T15:45:26;3.60;;;3.30;;
14592;SDS011;7383;52.354;9.756;2023-02-24T15:47:55;3.30;;;3.00;;
14592;SDS011;7383;52.354;9.756;2023-02-24T15:50:24;3.50;;;3.20;;
14592;SDS011;7383;52.354;9.756;2023-02-24T15:52:52;3.80;;;3.50;;